createdAt,value
2022-10-11T00:00:37.184Z,13.10
2022-10-11T00:03:39.581Z,13.06
2022-10-11T00:06:43.623Z,13.02
2022-10-11T00:09:46.819Z,13.02
2022-10-11T00:12:49.154Z,13.04
2022-10-11T00:15:51.497Z,13.06
2022-10-11T00:18:53.611Z,13.07
2022-10-11T00:21:56.026Z,13.05
2022-10-11T00:24:59.122Z,13.00
2022-10-11T00:28:01.579Z,13.00
2022-10-11T00:31:14.814Z,12.98
2022-10-11T00:34:18.115Z,12.88
2022-10-11T00:37:20.562Z,12.94
2022-10-11T00:40:22.904Z,12.91
2022-10-11T00:43:27.864Z,12.85
2022-10-11T00:46:32.064Z,12.73
2022-10-11T00:49:38.457Z,12.73
2022-10-11T00:52:43.202Z,12.77
2022-10-11T00:55:54.915Z,12.75
2022-10-11T00:58:58.831Z,12.71
2022-10-11T01:02:00.974Z,12.63
2022-10-11T01:05:28.845Z,12.64
2022-10-11T01:08:27.681Z,12.63
2022-10-11T01:11:31.143Z,12.60
2022-10-11T01:14:49.134Z,12.53
2022-10-11T01:18:07.995Z,12.43
2022-10-11T01:21:22.530Z,12.45
2022-10-11T01:24:41.442Z,12.38
2022-10-11T01:28:01.965Z,12.34
2022-10-11T01:31:12.889Z,12.34
2022-10-11T01:34:35.548Z,12.32
2022-10-11T01:37:43.967Z,12.33
2022-10-11T01:40:51.295Z,12.27
2022-10-11T01:43:59.298Z,12.31
2022-10-11T01:47:01.379Z,12.26
2022-10-11T01:50:04.033Z,12.21
2022-10-11T01:53:36.067Z,12.13
2022-10-11T01:56:57.056Z,12.10
2022-10-11T02:00:17.397Z,12.07
2022-10-11T02:03:31.993Z,12.02
2022-10-11T02:06:56.728Z,12.04
2022-10-11T02:10:21.264Z,11.99
2022-10-11T02:13:30.241Z,11.95
2022-10-11T02:16:39.706Z,11.91
2022-10-11T02:19:46.657Z,11.80
2022-10-11T02:22:53.567Z,11.81
2022-10-11T02:25:57.578Z,11.85
2022-10-11T02:29:04.551Z,11.82
2022-10-11T02:32:08.208Z,11.80
2022-10-11T02:35:11.749Z,11.74
2022-10-11T02:38:30.241Z,11.76
2022-10-11T02:41:38.426Z,11.77
2022-10-11T02:44:45.429Z,11.86
2022-10-11T02:47:48.262Z,11.95
2022-10-11T02:50:50.870Z,11.96
2022-10-11T02:53:53.554Z,12.03
2022-10-11T02:56:55.603Z,12.01
2022-10-11T02:59:57.939Z,12.00
2022-10-11T03:03:00.106Z,11.95
2022-10-11T03:06:04.337Z,11.96
2022-10-11T03:09:06.591Z,11.97
2022-10-11T03:12:08.948Z,11.85
2022-10-11T03:15:11.132Z,11.83
2022-10-11T03:18:13.458Z,11.85
2022-10-11T03:21:15.549Z,11.84
2022-10-11T03:24:17.958Z,11.80
2022-10-11T03:27:20.050Z,11.72
2022-10-11T03:30:22.413Z,11.69
2022-10-11T03:33:24.501Z,11.71
2022-10-11T03:36:26.831Z,11.68
2022-10-11T03:39:28.883Z,11.63
2022-10-11T03:42:31.223Z,11.63
2022-10-11T03:45:33.336Z,11.59
2022-10-11T03:48:35.775Z,11.51
2022-10-11T03:51:37.879Z,11.53
2022-10-11T03:54:40.267Z,11.59
2022-10-11T03:57:42.460Z,11.65
2022-10-11T04:00:44.774Z,11.64
2022-10-11T04:03:47.107Z,11.62
2022-10-11T04:06:49.169Z,11.63
2022-10-11T04:09:52.650Z,11.65
2022-10-11T04:12:54.693Z,11.68
2022-10-11T04:15:57.041Z,11.72
2022-10-11T04:18:59.235Z,11.74
2022-10-11T04:22:01.566Z,11.79
2022-10-11T04:25:04.223Z,11.82
2022-10-11T04:28:08.038Z,11.81
2022-10-11T04:31:10.202Z,11.87
2022-10-11T04:34:12.558Z,11.86
2022-10-11T04:37:14.637Z,11.88
2022-10-11T04:40:17.043Z,11.97
2022-10-11T04:43:19.355Z,11.98
2022-10-11T04:46:21.793Z,12.04
2022-10-11T04:49:24.353Z,11.97
2022-10-11T04:52:26.694Z,12.00
2022-10-11T04:55:29.517Z,12.01
2022-10-11T04:58:33.757Z,12.01
2022-10-11T05:01:35.919Z,12.04
2022-10-11T05:04:38.341Z,12.06
2022-10-11T05:07:40.398Z,12.08
2022-10-11T05:10:43.012Z,12.09
2022-10-11T05:13:48.628Z,12.10
2022-10-11T05:16:51.000Z,12.11
2022-10-11T05:19:53.049Z,12.13
2022-10-11T05:22:55.413Z,12.16
2022-10-11T05:25:58.075Z,12.25
2022-10-11T05:29:00.554Z,12.26
2022-10-11T05:32:02.702Z,12.29
2022-10-11T05:35:05.606Z,12.31
2022-10-11T05:38:08.280Z,12.46
2022-10-11T05:41:13.848Z,12.54
2022-10-11T05:44:15.949Z,12.55
2022-10-11T05:47:18.251Z,12.54
2022-10-11T05:50:24.152Z,12.60
2022-10-11T05:53:26.890Z,12.62
2022-10-11T05:56:28.952Z,12.64
2022-10-11T05:59:31.323Z,12.74
2022-10-11T06:02:34.020Z,12.72
2022-10-11T06:05:36.423Z,12.79
2022-10-11T06:08:38.531Z,12.84
2022-10-11T06:11:43.768Z,12.90
2022-10-11T06:14:45.905Z,13.00
2022-10-11T06:17:48.330Z,13.08
2022-10-11T06:20:50.397Z,13.15
2022-10-11T06:23:58.354Z,13.25
2022-10-11T06:27:03.195Z,13.38
2022-10-11T06:30:07.265Z,13.48
2022-10-11T06:33:09.381Z,13.54
2022-10-11T06:36:13.261Z,13.53
2022-10-11T06:39:15.361Z,13.55
2022-10-11T06:42:17.762Z,13.62
2022-10-11T06:45:19.885Z,13.70
2022-10-11T06:48:22.214Z,13.74
2022-10-11T06:51:25.160Z,13.72
2022-10-11T06:54:27.501Z,13.69
2022-10-11T06:57:29.758Z,13.74
2022-10-11T07:00:32.189Z,13.70
2022-10-11T07:03:35.058Z,13.72
2022-10-11T07:06:40.201Z,13.76
2022-10-11T07:09:42.324Z,13.92
2022-10-11T07:12:44.901Z,13.93
2022-10-11T07:15:46.971Z,13.99
2022-10-11T07:18:57.257Z,14.12
2022-10-11T07:22:01.860Z,14.17
2022-10-11T07:25:04.705Z,14.31
2022-10-11T07:28:06.773Z,14.46
2022-10-11T07:31:15.156Z,14.65
2022-10-11T07:34:18.049Z,14.78
2022-10-11T07:37:20.457Z,14.86
2022-10-11T07:40:22.565Z,14.89
2022-10-11T07:43:25.274Z,15.02
2022-10-11T07:46:27.446Z,15.14
2022-10-11T07:49:29.791Z,15.19
2022-10-11T07:52:31.896Z,15.24
2022-10-11T07:55:40.002Z,15.28
2022-10-11T07:58:42.667Z,15.37
2022-10-11T08:01:45.385Z,15.42
2022-10-11T08:04:47.829Z,15.51
2022-10-11T08:07:49.941Z,15.56
2022-10-11T08:10:52.406Z,15.79
2022-10-11T08:13:54.699Z,16.07
2022-10-11T08:16:57.190Z,16.32
2022-10-11T08:20:01.340Z,16.55
2022-10-11T08:23:03.994Z,16.65
2022-10-11T08:26:07.240Z,16.90
2022-10-11T08:29:10.157Z,17.25
2022-10-11T08:32:12.324Z,17.46
2022-10-11T08:35:14.800Z,17.56
2022-10-11T08:38:17.959Z,17.74
2022-10-11T08:41:32.086Z,18.02
2022-10-11T08:45:16.189Z,18.19
2022-10-11T08:48:31.376Z,18.37
2022-10-11T08:51:59.983Z,18.72
2022-10-11T08:55:07.881Z,18.89
2022-10-11T08:58:13.902Z,19.09
2022-10-11T09:01:23.754Z,19.26
2022-10-11T09:04:26.022Z,19.21
2022-10-11T09:07:37.416Z,19.40
2022-10-11T09:10:59.672Z,19.48
2022-10-11T09:14:06.670Z,19.47
2022-10-11T09:17:17.645Z,19.45
2022-10-11T09:20:37.095Z,19.19
2022-10-11T09:23:42.186Z,19.27
2022-10-11T09:27:01.449Z,19.26
2022-10-11T09:30:11.756Z,19.25
2022-10-11T09:33:28.353Z,19.08
2022-10-11T09:36:44.826Z,19.18
2022-10-11T09:40:11.718Z,19.14
2022-10-11T09:43:15.156Z,19.21
2022-10-11T09:46:32.494Z,19.14
2022-10-11T09:49:42.505Z,19.04
2022-10-11T09:52:53.660Z,19.13
2022-10-11T09:56:04.007Z,19.25
2022-10-11T09:59:27.211Z,19.35
2022-10-11T10:02:39.224Z,19.37
2022-10-11T10:05:41.664Z,19.25
2022-10-11T10:08:46.789Z,19.37
2022-10-11T10:11:49.355Z,19.51
2022-10-11T10:15:16.148Z,19.57
2022-10-11T10:18:23.640Z,19.70
2022-10-11T10:21:36.676Z,19.81
2022-10-11T10:24:41.544Z,19.94
2022-10-11T10:27:57.497Z,20.08
2022-10-11T10:30:59.873Z,19.94
2022-10-11T10:34:02.776Z,19.71
2022-10-11T10:37:28.066Z,19.54
2022-10-11T10:40:47.354Z,19.35
2022-10-11T10:44:00.165Z,19.25
2022-10-11T10:47:19.463Z,19.28
2022-10-11T10:50:55.738Z,19.29
2022-10-11T10:54:10.320Z,19.38
2022-10-11T10:57:48.098Z,19.42
2022-10-11T11:01:02.311Z,19.47
2022-10-11T11:04:14.631Z,19.45
2022-10-11T11:07:44.058Z,19.45
2022-10-11T11:11:22.043Z,19.42
2022-10-11T11:14:24.037Z,19.40
2022-10-11T11:17:49.645Z,19.44
2022-10-11T11:21:41.198Z,19.48
2022-10-11T11:24:49.870Z,19.62
2022-10-11T11:28:16.913Z,19.69
2022-10-11T11:31:39.002Z,19.74
2022-10-11T11:34:46.915Z,19.87
2022-10-11T11:37:58.567Z,20.00
2022-10-11T11:41:10.133Z,19.90
2022-10-11T11:44:32.009Z,19.77
2022-10-11T11:47:38.527Z,19.63
2022-10-11T11:50:45.890Z,19.77
2022-10-11T11:54:06.051Z,19.85
2022-10-11T11:57:17.409Z,19.96
2022-10-11T12:00:32.463Z,20.06
2022-10-11T12:03:41.744Z,20.06
2022-10-11T12:07:11.161Z,20.09
2022-10-11T12:10:25.178Z,20.22
2022-10-11T12:13:40.774Z,20.09
2022-10-11T12:17:10.578Z,20.12
2022-10-11T12:20:25.929Z,20.11
2022-10-11T12:23:28.240Z,20.17
2022-10-11T12:26:56.426Z,20.20
2022-10-11T12:29:58.799Z,20.35
2022-10-11T12:33:18.127Z,20.27
2022-10-11T12:36:52.978Z,20.17
2022-10-11T12:39:59.970Z,19.90
2022-10-11T12:43:14.207Z,19.87
2022-10-11T12:46:28.522Z,19.86
2022-10-11T12:49:33.913Z,19.99
2022-10-11T12:52:52.099Z,19.86
2022-10-11T12:56:00.866Z,19.93
2022-10-11T12:59:06.266Z,20.10
2022-10-11T13:02:36.241Z,20.23
2022-10-11T13:05:45.511Z,20.33
2022-10-11T13:08:54.680Z,20.41
2022-10-11T13:12:06.374Z,20.43
2022-10-11T13:15:14.742Z,20.50
2022-10-11T13:18:18.231Z,20.50
2022-10-11T13:21:26.950Z,20.43
2022-10-11T13:24:39.034Z,20.34
2022-10-11T13:27:41.702Z,20.16
2022-10-11T13:30:46.920Z,19.89
2022-10-11T13:33:54.801Z,19.70
2022-10-11T13:36:58.537Z,19.53
2022-10-11T13:40:00.952Z,19.40
2022-10-11T13:43:05.625Z,19.28
2022-10-11T13:46:17.363Z,19.13
2022-10-11T13:49:29.387Z,19.04
2022-10-11T13:52:32.316Z,18.89
2022-10-11T13:55:36.212Z,18.86
2022-10-11T13:58:46.691Z,18.75
2022-10-11T14:01:50.685Z,18.71
2022-10-11T14:04:53.480Z,18.64
2022-10-11T14:07:57.439Z,18.68
2022-10-11T14:11:05.932Z,18.71
2022-10-11T14:14:38.877Z,18.72
2022-10-11T14:17:44.098Z,18.71
2022-10-11T14:20:46.157Z,18.75
2022-10-11T14:23:52.342Z,18.79
2022-10-11T14:26:56.271Z,18.90
2022-10-11T14:30:25.012Z,19.02
2022-10-11T14:33:21.125Z,19.10
2022-10-11T14:36:24.023Z,19.15
2022-10-11T14:39:28.351Z,19.18
2022-10-11T14:42:30.683Z,19.15
2022-10-11T14:45:32.805Z,19.12
2022-10-11T14:48:54.410Z,19.04
2022-10-11T14:51:59.068Z,19.00
2022-10-11T14:55:01.884Z,18.89
2022-10-11T14:58:05.601Z,18.79
2022-10-11T15:01:12.715Z,18.72
2022-10-11T15:04:15.377Z,18.65
2022-10-11T15:07:17.741Z,18.54
2022-10-11T15:10:33.459Z,18.46
2022-10-11T15:13:36.070Z,18.43
2022-10-11T15:16:40.145Z,18.40
2022-10-11T15:19:42.497Z,18.33
2022-10-11T15:22:44.588Z,18.33
2022-10-11T15:25:47.167Z,18.30
2022-10-11T15:28:50.470Z,18.26
2022-10-11T15:31:52.821Z,18.20
2022-10-11T15:34:54.898Z,18.16
2022-10-11T15:37:59.516Z,18.12
2022-10-11T15:41:01.641Z,18.05
2022-10-11T15:44:04.047Z,18.00
2022-10-11T15:47:06.138Z,17.99
2022-10-11T15:50:24.082Z,17.99
2022-10-11T15:53:30.889Z,17.89
2022-10-11T15:56:33.959Z,17.77
2022-10-11T15:59:36.162Z,17.78
2022-10-11T16:02:39.197Z,17.72
2022-10-11T16:05:42.182Z,17.72
2022-10-11T16:08:44.917Z,17.68
2022-10-11T16:11:47.274Z,17.68
2022-10-11T16:14:49.358Z,17.59
2022-10-11T16:17:51.820Z,17.54
2022-10-11T16:20:54.118Z,17.47
2022-10-11T16:23:56.470Z,17.48
2022-10-11T16:26:58.562Z,17.42
2022-10-11T16:30:01.170Z,17.40
2022-10-11T16:33:03.342Z,17.36
2022-10-11T16:36:26.438Z,17.26
2022-10-11T16:39:28.611Z,17.17
2022-10-11T16:42:31.178Z,17.06
2022-10-11T16:45:33.948Z,17.03
2022-10-11T16:48:36.358Z,16.97
2022-10-11T16:51:38.455Z,16.81
2022-10-11T16:54:47.504Z,16.71
2022-10-11T16:57:49.590Z,16.69
2022-10-11T17:00:52.119Z,16.69
2022-10-11T17:03:55.609Z,16.53
2022-10-11T17:06:58.193Z,16.51
2022-10-11T17:10:01.085Z,16.46
2022-10-11T17:13:03.425Z,16.43
2022-10-11T17:16:06.140Z,16.35
2022-10-11T17:19:14.150Z,16.37
2022-10-11T17:22:18.626Z,16.38
2022-10-11T17:25:21.482Z,16.36
2022-10-11T17:28:23.819Z,16.31
2022-10-11T17:31:27.955Z,16.24
2022-10-11T17:34:30.457Z,16.25
2022-10-11T17:37:34.124Z,16.20
2022-10-11T17:40:36.205Z,16.19
2022-10-11T17:43:39.219Z,16.16
2022-10-11T17:46:41.275Z,16.18
2022-10-11T17:49:43.642Z,16.13
2022-10-11T17:52:45.889Z,16.01
2022-10-11T17:55:53.341Z,15.94
2022-10-11T17:58:57.197Z,15.90
2022-10-11T18:01:59.566Z,15.91
2022-10-11T18:05:01.888Z,15.84
2022-10-11T18:08:03.999Z,15.81
2022-10-11T18:11:11.881Z,15.62
2022-10-11T18:14:13.966Z,15.52
2022-10-11T18:17:16.878Z,15.57
2022-10-11T18:20:18.996Z,15.58
2022-10-11T18:23:21.363Z,15.57
2022-10-11T18:26:27.991Z,15.59
2022-10-11T18:29:32.755Z,15.62
2022-10-11T18:32:35.343Z,15.57
2022-10-11T18:35:38.177Z,15.52
2022-10-11T18:38:46.027Z,15.45
2022-10-11T18:41:48.832Z,15.45
2022-10-11T18:44:50.911Z,15.30
2022-10-11T18:47:53.245Z,15.18
2022-10-11T18:51:12.334Z,15.18
2022-10-11T18:54:18.429Z,15.14
2022-10-11T18:57:24.273Z,15.04
2022-10-11T19:00:41.965Z,14.99
2022-10-11T19:03:46.018Z,14.95
2022-10-11T19:06:49.388Z,14.95
2022-10-11T19:09:51.520Z,14.82
2022-10-11T19:12:53.932Z,14.81
2022-10-11T19:15:56.031Z,14.73
2022-10-11T19:18:59.079Z,14.65
2022-10-11T19:22:03.271Z,14.62
2022-10-11T19:25:06.231Z,14.57
2022-10-11T19:28:12.332Z,14.50
2022-10-11T19:31:17.328Z,14.45
2022-10-11T19:34:20.299Z,14.46
2022-10-11T19:37:22.863Z,14.47
2022-10-11T19:40:24.985Z,14.43
2022-10-11T19:43:27.633Z,14.43
2022-10-11T19:46:50.386Z,14.38
2022-10-11T19:49:52.136Z,14.43
2022-10-11T19:52:54.221Z,14.39
2022-10-11T19:56:00.264Z,14.29
2022-10-11T19:59:02.970Z,14.39
2022-10-11T20:02:05.405Z,14.34
2022-10-11T20:05:08.097Z,14.33
2022-10-11T20:08:10.185Z,14.36
2022-10-11T20:11:13.158Z,14.33
2022-10-11T20:14:15.232Z,14.33
2022-10-11T20:17:17.622Z,14.32
2022-10-11T20:20:19.949Z,14.38
2022-10-11T20:23:27.361Z,14.40
2022-10-11T20:26:30.763Z,14.38
2022-10-11T20:29:33.178Z,14.44
2022-10-11T20:32:35.328Z,14.40
2022-10-11T20:35:37.670Z,14.30
2022-10-11T20:38:42.558Z,14.36
2022-10-11T20:41:44.906Z,14.25
2022-10-11T20:44:48.578Z,14.24
2022-10-11T20:47:53.023Z,14.24
2022-10-11T20:50:55.251Z,14.18
2022-10-11T20:53:58.887Z,14.13
2022-10-11T20:57:00.946Z,14.11
2022-10-11T21:00:04.626Z,14.03
2022-10-11T21:03:07.006Z,13.91
2022-10-11T21:06:09.671Z,13.83
2022-10-11T21:09:14.063Z,13.80
2022-10-11T21:12:18.777Z,13.79
2022-10-11T21:15:20.852Z,13.82
2022-10-11T21:18:23.203Z,13.76
2022-10-11T21:21:26.311Z,13.72
2022-10-11T21:24:28.645Z,13.56
2022-10-11T21:27:30.799Z,13.38
2022-10-11T21:30:34.055Z,13.33
2022-10-11T21:33:36.695Z,13.33
2022-10-11T21:36:39.049Z,13.35
2022-10-11T21:39:41.175Z,13.30
2022-10-11T21:42:43.550Z,13.25
2022-10-11T21:45:46.059Z,13.23
2022-10-11T21:48:50.033Z,13.20
2022-10-11T21:51:52.097Z,13.14
2022-10-11T21:54:54.474Z,13.16
2022-10-11T21:57:56.530Z,13.14
2022-10-11T22:00:59.069Z,13.13
2022-10-11T22:04:01.417Z,13.14
2022-10-11T22:07:03.489Z,13.10
2022-10-11T22:10:06.159Z,13.02
2022-10-11T22:13:08.554Z,12.92
2022-10-11T22:16:12.587Z,12.85
2022-10-11T22:19:14.666Z,12.80
2022-10-11T22:22:17.046Z,12.81
2022-10-11T22:25:19.236Z,12.81
2022-10-11T22:28:21.617Z,12.77
2022-10-11T22:31:24.014Z,12.72
2022-10-11T22:34:30.786Z,12.59
2022-10-11T22:37:33.914Z,12.54
2022-10-11T22:40:39.740Z,12.48
2022-10-11T22:43:41.856Z,12.47
2022-10-11T22:46:44.203Z,12.37
2022-10-11T22:49:46.287Z,12.35
2022-10-11T22:52:48.607Z,12.33
2022-10-11T22:55:50.981Z,12.31
2022-10-11T22:58:53.329Z,12.30
2022-10-11T23:01:55.415Z,12.31
2022-10-11T23:04:58.273Z,12.21
2022-10-11T23:08:00.462Z,12.21
2022-10-11T23:11:07.078Z,12.20
2022-10-11T23:14:09.290Z,12.17
2022-10-11T23:17:11.649Z,12.15
2022-10-11T23:20:13.901Z,12.12
2022-10-11T23:23:16.237Z,12.02
2022-10-11T23:26:18.286Z,12.07
2022-10-11T23:29:20.617Z,12.02
2022-10-11T23:32:22.675Z,12.04
2022-10-11T23:35:25.190Z,12.04
2022-10-11T23:38:27.485Z,11.97
2022-10-11T23:41:30.471Z,11.90
2022-10-11T23:44:32.564Z,11.93
2022-10-11T23:47:35.303Z,11.92
2022-10-11T23:50:37.625Z,11.94
2022-10-11T23:53:39.968Z,11.91
2022-10-11T23:56:42.026Z,11.90
2022-10-11T23:59:44.397Z,11.88
